createdAt,value
2023-02-22T00:01:50.465Z,5.09
2023-02-22T00:04:07.106Z,5.07
2023-02-22T00:06:25.268Z,5.08
2023-02-22T00:08:37.541Z,5.08
2023-02-22T00:10:53.101Z,5.08
2023-02-22T00:13:07.696Z,5.09
2023-02-22T00:15:22.832Z,5.08
2023-02-22T00:17:35.433Z,5.08
2023-02-22T00:19:49.067Z,5.10
2023-02-22T00:22:00.754Z,5.10
2023-02-22T00:24:23.513Z,5.09
2023-02-22T00:26:35.295Z,5.09
2023-02-22T00:28:54.693Z,5.09
2023-02-22T00:31:07.983Z,5.09
2023-02-22T00:33:20.316Z,5.09
2023-02-22T00:35:32.601Z,5.08
2023-02-22T00:37:48.620Z,5.08
2023-02-22T00:40:00.777Z,5.08
2023-02-22T00:42:12.874Z,5.07
2023-02-22T00:44:24.765Z,5.07
2023-02-22T00:46:36.554Z,5.07
2023-02-22T00:48:48.649Z,5.06
2023-02-22T00:51:02.899Z,5.04
2023-02-22T00:53:16.146Z,5.01
2023-02-22T00:55:31.266Z,4.98
2023-02-22T00:57:43.392Z,4.95
2023-02-22T00:59:55.587Z,4.89
2023-02-22T01:02:09.765Z,4.84
2023-02-22T01:04:22.238Z,4.79
2023-02-22T01:06:35.982Z,4.75
2023-02-22T01:08:48.992Z,4.72
2023-02-22T01:11:02.634Z,4.70
2023-02-22T01:13:15.237Z,4.69
2023-02-22T01:15:30.926Z,4.66
2023-02-22T01:17:43.998Z,4.64
2023-02-22T01:19:56.440Z,4.62
2023-02-22T01:22:09.051Z,4.57
2023-02-22T01:24:21.045Z,4.56
2023-02-22T01:26:33.062Z,4.54
2023-02-22T01:28:44.728Z,4.48
2023-02-22T01:30:56.993Z,4.44
2023-02-22T01:33:09.488Z,4.38
2023-02-22T01:35:28.043Z,4.34
2023-02-22T01:37:40.588Z,4.30
2023-02-22T01:39:52.378Z,4.25
2023-02-22T01:42:04.579Z,4.21
2023-02-22T01:44:35.650Z,4.15
2023-02-22T01:46:47.817Z,4.09
2023-02-22T01:49:06.775Z,4.03
2023-02-22T01:51:24.360Z,3.98
2023-02-22T01:54:03.130Z,3.92
2023-02-22T01:56:16.549Z,3.86
2023-02-22T01:58:33.769Z,3.80
2023-02-22T02:00:45.974Z,3.76
2023-02-22T02:03:01.932Z,3.72
2023-02-22T02:05:15.127Z,3.66
2023-02-22T02:07:29.866Z,3.57
2023-02-22T02:10:06.611Z,3.50
2023-02-22T02:12:20.057Z,3.42
2023-02-22T02:14:32.959Z,3.39
2023-02-22T02:16:49.247Z,3.36
2023-02-22T02:19:03.552Z,3.33
2023-02-22T02:21:34.949Z,3.28
2023-02-22T02:24:09.267Z,3.23
2023-02-22T02:26:59.562Z,3.16
2023-02-22T02:29:30.603Z,3.12
2023-02-22T02:32:27.589Z,3.10
2023-02-22T02:35:04.638Z,3.05
2023-02-22T02:37:43.253Z,3.01
2023-02-22T02:40:13.841Z,2.92
2023-02-22T02:42:34.892Z,2.86
2023-02-22T02:45:08.863Z,2.84
2023-02-22T02:47:29.723Z,2.84
2023-02-22T02:50:00.153Z,2.82
2023-02-22T02:52:13.477Z,2.80
2023-02-22T02:54:26.680Z,2.80
2023-02-22T02:56:38.889Z,2.76
2023-02-22T02:58:53.468Z,2.72
2023-02-22T03:01:08.398Z,2.69
2023-02-22T03:03:27.327Z,2.66
2023-02-22T03:05:59.629Z,2.63
2023-02-22T03:08:34.766Z,2.59
2023-02-22T03:11:15.552Z,2.55
2023-02-22T03:13:42.790Z,2.47
2023-02-22T03:16:03.005Z,2.43
2023-02-22T03:18:38.486Z,2.39
2023-02-22T03:21:00.349Z,2.32
2023-02-22T03:23:34.359Z,2.25
2023-02-22T03:25:52.085Z,2.21
2023-02-22T03:28:11.634Z,2.18
2023-02-22T03:30:29.054Z,2.12
2023-02-22T03:32:47.211Z,2.07
2023-02-22T03:35:07.845Z,2.03
2023-02-22T03:37:25.956Z,2.01
2023-02-22T03:39:39.076Z,1.99
2023-02-22T03:41:53.981Z,1.97
2023-02-22T03:44:12.289Z,1.96
2023-02-22T03:46:24.551Z,1.95
2023-02-22T03:48:49.072Z,1.94
2023-02-22T03:51:04.527Z,1.92
2023-02-22T03:53:19.237Z,1.90
2023-02-22T03:55:31.713Z,1.87
2023-02-22T03:57:51.204Z,1.83
2023-02-22T04:00:07.590Z,1.79
2023-02-22T04:02:24.693Z,1.74
2023-02-22T04:04:37.790Z,1.71
2023-02-22T04:06:50.219Z,1.70
2023-02-22T04:09:03.158Z,1.68
2023-02-22T04:11:15.839Z,1.66
2023-02-22T04:13:28.253Z,1.64
2023-02-22T04:15:40.897Z,1.60
2023-02-22T04:17:55.327Z,1.56
2023-02-22T04:20:08.436Z,1.51
2023-02-22T04:22:28.421Z,1.48
2023-02-22T04:24:41.342Z,1.44
2023-02-22T04:26:55.249Z,1.41
2023-02-22T04:29:08.511Z,1.36
2023-02-22T04:31:23.474Z,1.33
2023-02-22T04:33:36.829Z,1.30
2023-02-22T04:35:49.198Z,1.29
2023-02-22T04:38:01.494Z,1.28
2023-02-22T04:40:13.182Z,1.27
2023-02-22T04:42:25.388Z,1.27
2023-02-22T04:44:37.682Z,1.26
2023-02-22T04:46:50.260Z,1.25
2023-02-22T04:49:02.387Z,1.24
2023-02-22T04:51:16.986Z,1.21
2023-02-22T04:53:39.702Z,1.17
2023-02-22T04:55:52.842Z,1.15
2023-02-22T04:58:05.622Z,1.12
2023-02-22T05:00:21.636Z,1.08
2023-02-22T05:02:33.845Z,1.07
2023-02-22T05:04:46.146Z,1.04
2023-02-22T05:06:57.801Z,1.02
2023-02-22T05:09:09.490Z,1.01
2023-02-22T05:11:22.414Z,0.99
2023-02-22T05:13:34.404Z,1.00
2023-02-22T05:15:46.201Z,1.03
2023-02-22T05:17:58.343Z,1.06
2023-02-22T05:20:19.774Z,1.08
2023-02-22T05:22:31.592Z,1.10
2023-02-22T05:24:44.105Z,1.15
2023-02-22T05:26:55.789Z,1.16
2023-02-22T05:29:07.681Z,1.20
2023-02-22T05:31:19.779Z,1.21
2023-02-22T05:33:31.983Z,1.21
2023-02-22T05:35:44.024Z,1.18
2023-02-22T05:37:56.481Z,1.17
2023-02-22T05:40:09.225Z,1.16
2023-02-22T05:42:21.595Z,1.13
2023-02-22T05:44:33.385Z,1.11
2023-02-22T05:46:45.208Z,1.09
2023-02-22T05:48:56.968Z,1.07
2023-02-22T05:51:09.834Z,1.03
2023-02-22T05:53:23.924Z,0.98
2023-02-22T05:55:36.027Z,0.96
2023-02-22T05:57:48.122Z,0.96
2023-02-22T06:00:00.016Z,0.96
2023-02-22T06:02:12.052Z,0.96
2023-02-22T06:04:23.796Z,0.97
2023-02-22T06:06:35.894Z,1.00
2023-02-22T06:08:47.473Z,1.03
2023-02-22T06:10:59.372Z,1.05
2023-02-22T06:13:11.110Z,1.08
2023-02-22T06:15:25.088Z,1.12
2023-02-22T06:17:36.891Z,1.14
2023-02-22T06:19:48.679Z,1.16
2023-02-22T06:22:01.081Z,1.18
2023-02-22T06:24:13.893Z,1.19
2023-02-22T06:26:25.990Z,1.21
2023-02-22T06:28:38.192Z,1.23
2023-02-22T06:30:49.466Z,1.25
2023-02-22T06:33:01.608Z,1.27
2023-02-22T06:35:14.640Z,1.30
2023-02-22T06:37:26.545Z,1.36
2023-02-22T06:39:38.077Z,1.42
2023-02-22T06:41:51.486Z,1.48
2023-02-22T06:44:04.204Z,1.53
2023-02-22T06:46:15.989Z,1.56
2023-02-22T06:48:27.987Z,1.60
2023-02-22T06:50:40.088Z,1.62
2023-02-22T06:52:52.689Z,1.64
2023-02-22T06:55:04.809Z,1.69
2023-02-22T06:57:17.233Z,1.74
2023-02-22T06:59:29.291Z,1.78
2023-02-22T07:01:42.818Z,1.82
2023-02-22T07:03:54.617Z,1.85
2023-02-22T07:06:07.356Z,1.87
2023-02-22T07:08:18.778Z,1.90
2023-02-22T07:10:31.745Z,1.93
2023-02-22T07:12:43.571Z,1.98
2023-02-22T07:14:56.544Z,2.06
2023-02-22T07:17:08.187Z,2.12
2023-02-22T07:19:20.933Z,2.19
2023-02-22T07:21:32.725Z,2.27
2023-02-22T07:23:54.243Z,2.34
2023-02-22T07:26:06.033Z,2.42
2023-02-22T07:28:19.433Z,2.50
2023-02-22T07:30:34.299Z,2.56
2023-02-22T07:32:47.077Z,2.64
2023-02-22T07:34:59.347Z,2.70
2023-02-22T07:37:11.457Z,2.76
2023-02-22T07:39:23.687Z,2.84
2023-02-22T07:41:35.626Z,2.89
2023-02-22T07:43:47.405Z,2.92
2023-02-22T07:46:02.966Z,2.94
2023-02-22T07:48:17.325Z,2.98
2023-02-22T07:50:31.485Z,3.01
2023-02-22T07:52:47.730Z,3.02
2023-02-22T07:55:00.700Z,3.05
2023-02-22T07:57:13.996Z,3.10
2023-02-22T07:59:25.692Z,3.19
2023-02-22T08:01:37.596Z,3.32
2023-02-22T08:03:49.461Z,3.58
2023-02-22T08:06:03.164Z,3.83
2023-02-22T08:08:18.823Z,4.06
2023-02-22T08:10:31.891Z,4.31
2023-02-22T08:12:43.828Z,4.57
2023-02-22T08:14:55.622Z,4.81
2023-02-22T08:17:08.824Z,5.07
2023-02-22T08:19:23.089Z,5.28
2023-02-22T08:21:35.082Z,5.45
2023-02-22T08:23:51.591Z,5.63
2023-02-22T08:26:09.200Z,5.70
2023-02-22T08:28:23.615Z,5.67
2023-02-22T08:30:39.038Z,5.61
2023-02-22T08:32:52.243Z,5.52
2023-02-22T08:35:05.278Z,5.44
2023-02-22T08:37:18.254Z,5.42
2023-02-22T08:39:29.883Z,5.42
2023-02-22T08:41:41.885Z,5.44
2023-02-22T08:43:53.769Z,5.50
2023-02-22T08:46:05.481Z,5.54
2023-02-22T08:48:18.585Z,5.56
2023-02-22T08:50:33.837Z,5.57
2023-02-22T08:52:53.384Z,5.56
2023-02-22T08:55:08.387Z,5.55
2023-02-22T08:57:21.733Z,5.55
2023-02-22T08:59:34.008Z,5.49
2023-02-22T09:01:45.752Z,5.41
2023-02-22T09:03:58.232Z,5.37
2023-02-22T09:06:14.037Z,5.32
2023-02-22T09:08:26.388Z,5.29
2023-02-22T09:10:38.801Z,5.25
2023-02-22T09:12:52.117Z,5.22
2023-02-22T09:15:04.216Z,5.19
2023-02-22T09:17:16.006Z,5.18
2023-02-22T09:19:28.821Z,5.14
2023-02-22T09:21:41.542Z,5.10
2023-02-22T09:23:54.843Z,5.08
2023-02-22T09:26:10.751Z,5.04
2023-02-22T09:28:24.709Z,5.04
2023-02-22T09:30:37.564Z,5.03
2023-02-22T09:32:51.523Z,4.99
2023-02-22T09:35:03.739Z,4.99
2023-02-22T09:37:15.560Z,4.99
2023-02-22T09:39:28.178Z,4.99
2023-02-22T09:41:57.033Z,4.99
2023-02-22T09:44:28.277Z,5.00
2023-02-22T09:46:45.961Z,4.98
2023-02-22T09:49:05.431Z,5.02
2023-02-22T09:51:20.745Z,5.04
2023-02-22T09:53:42.039Z,5.06
2023-02-22T09:55:57.860Z,5.05
2023-02-22T09:58:22.129Z,5.05
2023-02-22T10:00:38.831Z,5.04
2023-02-22T10:03:31.174Z,5.05
2023-02-22T10:05:53.744Z,5.07
2023-02-22T10:08:12.834Z,5.10
2023-02-22T10:10:33.585Z,5.14
2023-02-22T10:13:09.943Z,5.17
2023-02-22T10:15:42.841Z,5.23
2023-02-22T10:18:03.536Z,5.31
2023-02-22T10:20:37.435Z,5.56
2023-02-22T10:23:03.773Z,5.81
2023-02-22T10:25:20.634Z,5.95
2023-02-22T10:27:39.497Z,6.06
2023-02-22T10:30:26.008Z,6.19
2023-02-22T10:32:45.712Z,6.29
2023-02-22T10:35:00.952Z,6.38
2023-02-22T10:37:24.406Z,6.57
2023-02-22T10:39:39.918Z,6.76
2023-02-22T10:42:05.793Z,7.06
2023-02-22T10:44:17.747Z,7.42
2023-02-22T10:46:32.565Z,7.47
2023-02-22T10:48:48.228Z,7.46
2023-02-22T10:51:02.255Z,7.64
2023-02-22T10:53:17.895Z,7.65
2023-02-22T10:55:29.885Z,7.60
2023-02-22T10:57:47.061Z,7.56
2023-02-22T11:00:14.102Z,7.44
2023-02-22T11:02:35.249Z,7.36
2023-02-22T11:04:55.744Z,7.29
2023-02-22T11:07:14.521Z,7.24
2023-02-22T11:09:29.071Z,7.26
2023-02-22T11:11:44.438Z,7.27
2023-02-22T11:13:57.365Z,7.24
2023-02-22T11:16:31.662Z,7.11
2023-02-22T11:18:43.603Z,6.90
2023-02-22T11:21:05.552Z,6.79
2023-02-22T11:23:23.566Z,6.66
2023-02-22T11:25:39.220Z,6.56
2023-02-22T11:27:52.648Z,6.46
2023-02-22T11:30:22.138Z,6.40
2023-02-22T11:32:36.598Z,6.34
2023-02-22T11:35:03.461Z,6.31
2023-02-22T11:37:36.716Z,6.24
2023-02-22T11:39:51.293Z,6.18
2023-02-22T11:42:27.473Z,6.11
2023-02-22T11:44:44.054Z,6.02
2023-02-22T11:47:01.573Z,6.01
2023-02-22T11:49:17.461Z,6.00
2023-02-22T11:51:32.227Z,6.01
2023-02-22T11:54:13.916Z,6.05
2023-02-22T11:56:38.119Z,6.10
2023-02-22T11:59:08.217Z,6.13
2023-02-22T12:01:55.414Z,6.09
2023-02-22T12:04:40.463Z,6.08
2023-02-22T12:07:15.573Z,6.12
2023-02-22T12:09:40.851Z,6.22
2023-02-22T12:12:17.684Z,6.19
2023-02-22T12:14:49.530Z,6.16
2023-02-22T12:17:07.895Z,6.14
2023-02-22T12:19:39.982Z,6.19
2023-02-22T12:22:03.288Z,6.24
2023-02-22T12:24:27.848Z,6.24
2023-02-22T12:26:42.280Z,6.27
2023-02-22T12:29:09.408Z,6.28
2023-02-22T12:31:36.102Z,6.22
2023-02-22T12:34:27.501Z,6.16
2023-02-22T12:36:51.961Z,6.09
2023-02-22T12:39:21.026Z,6.08
2023-02-22T12:41:55.450Z,6.12
2023-02-22T12:44:23.538Z,6.12
2023-02-22T12:46:41.749Z,6.16
2023-02-22T12:49:31.913Z,6.19
2023-02-22T12:51:52.543Z,6.22
2023-02-22T12:54:16.560Z,6.23
2023-02-22T12:56:34.590Z,6.23
2023-02-22T12:58:54.478Z,6.25
2023-02-22T13:01:18.147Z,6.28
2023-02-22T13:03:42.552Z,6.29
2023-02-22T13:06:26.582Z,6.27
2023-02-22T13:08:56.792Z,6.23
2023-02-22T13:11:38.684Z,6.26
2023-02-22T13:14:14.743Z,6.24
2023-02-22T13:16:56.641Z,6.16
2023-02-22T13:19:24.304Z,6.14
2023-02-22T13:21:55.754Z,6.15
2023-02-22T13:24:22.779Z,6.14
2023-02-22T13:26:52.221Z,6.08
2023-02-22T13:29:16.894Z,6.04
2023-02-22T13:31:57.939Z,6.01
2023-02-22T13:34:31.984Z,5.97
2023-02-22T13:37:17.977Z,5.96
2023-02-22T13:39:35.907Z,5.97
2023-02-22T13:41:57.320Z,5.94
2023-02-22T13:44:13.718Z,5.92
2023-02-22T13:46:44.615Z,5.85
2023-02-22T13:49:19.082Z,5.78
2023-02-22T13:51:53.496Z,5.73
2023-02-22T13:54:17.989Z,5.73
2023-02-22T13:56:30.561Z,5.69
2023-02-22T13:59:21.499Z,5.70
2023-02-22T14:01:42.685Z,5.67
2023-02-22T14:04:23.702Z,5.64
2023-02-22T14:06:39.106Z,5.62
2023-02-22T14:08:50.850Z,5.62
2023-02-22T14:11:31.823Z,5.62
2023-02-22T14:14:09.069Z,5.61
2023-02-22T14:16:32.435Z,5.60
2023-02-22T14:19:09.545Z,5.60
2023-02-22T14:21:33.224Z,5.61
2023-02-22T14:23:56.647Z,5.64
2023-02-22T14:26:34.191Z,5.65
2023-02-22T14:29:06.603Z,5.57
2023-02-22T14:31:35.349Z,5.53
2023-02-22T14:33:59.622Z,5.51
2023-02-22T14:36:13.596Z,5.53
2023-02-22T14:38:26.274Z,5.57
2023-02-22T14:40:42.900Z,5.57
2023-02-22T14:43:15.354Z,5.56
2023-02-22T14:45:34.389Z,5.52
2023-02-22T14:48:17.128Z,5.48
2023-02-22T14:50:45.421Z,5.45
2023-02-22T14:53:12.245Z,5.44
2023-02-22T14:55:26.417Z,5.41
2023-02-22T14:57:53.763Z,5.37
2023-02-22T15:00:33.191Z,5.34
2023-02-22T15:02:55.348Z,5.29
2023-02-22T15:05:08.238Z,5.27
2023-02-22T15:07:28.761Z,5.28
2023-02-22T15:09:41.064Z,5.32
2023-02-22T15:12:03.884Z,5.36
2023-02-22T15:14:26.291Z,5.42
2023-02-22T15:16:44.667Z,5.45
2023-02-22T15:19:03.960Z,5.42
2023-02-22T15:21:19.525Z,5.34
2023-02-22T15:23:43.823Z,5.34
2023-02-22T15:25:55.805Z,5.37
2023-02-22T15:28:09.751Z,5.41
2023-02-22T15:30:28.170Z,5.50
2023-02-22T15:32:56.937Z,5.60
2023-02-22T15:35:20.327Z,5.68
2023-02-22T15:37:33.497Z,5.74
2023-02-22T15:39:53.017Z,5.73
2023-02-22T15:42:08.105Z,5.61
2023-02-22T15:44:24.411Z,5.48
2023-02-22T15:46:36.686Z,5.36
2023-02-22T15:49:10.183Z,5.20
2023-02-22T15:51:22.301Z,5.08
2023-02-22T15:53:45.370Z,5.00
2023-02-22T15:56:00.299Z,4.91
2023-02-22T15:58:23.874Z,4.82
2023-02-22T16:00:38.668Z,4.73
2023-02-22T16:02:51.854Z,4.68
2023-02-22T16:05:10.234Z,4.65
2023-02-22T16:07:24.540Z,4.61
2023-02-22T16:09:37.972Z,4.56
2023-02-22T16:11:50.781Z,4.51
2023-02-22T16:14:06.118Z,4.48
2023-02-22T16:16:20.971Z,4.43
2023-02-22T16:18:36.403Z,4.37
2023-02-22T16:21:02.110Z,4.32
2023-02-22T16:23:28.646Z,4.25
2023-02-22T16:25:40.535Z,4.18
2023-02-22T16:28:00.316Z,4.13
2023-02-22T16:30:24.492Z,4.09
2023-02-22T16:32:37.970Z,4.04
2023-02-22T16:34:50.658Z,3.99
2023-02-22T16:37:02.365Z,3.95
2023-02-22T16:39:27.492Z,3.91
2023-02-22T16:41:40.040Z,3.86
2023-02-22T16:43:54.420Z,3.82
2023-02-22T16:46:07.286Z,3.78
2023-02-22T16:48:22.675Z,3.75
2023-02-22T16:50:35.186Z,3.71
2023-02-22T16:52:47.842Z,3.68
2023-02-22T16:55:02.199Z,3.63
2023-02-22T16:57:24.982Z,3.62
2023-02-22T16:59:39.333Z,3.59
2023-02-22T17:01:51.327Z,3.55
2023-02-22T17:04:09.521Z,3.52
2023-02-22T17:06:22.689Z,3.50
2023-02-22T17:08:34.374Z,3.48
2023-02-22T17:10:51.733Z,3.44
2023-02-22T17:13:21.303Z,3.41
2023-02-22T17:15:35.683Z,3.33
2023-02-22T17:17:48.978Z,3.27
2023-02-22T17:20:01.804Z,3.22
2023-02-22T17:22:20.610Z,3.18
2023-02-22T17:24:34.291Z,3.13
2023-02-22T17:26:46.684Z,3.09
2023-02-22T17:28:58.629Z,3.06
2023-02-22T17:31:20.762Z,3.01
2023-02-22T17:33:36.753Z,2.96
2023-02-22T17:35:48.903Z,2.94
2023-02-22T17:38:01.815Z,2.91
2023-02-22T17:40:14.926Z,2.90
2023-02-22T17:42:27.150Z,2.88
2023-02-22T17:44:39.235Z,2.86
2023-02-22T17:46:52.991Z,2.83
2023-02-22T17:49:04.569Z,2.78
2023-02-22T17:51:16.655Z,2.77
2023-02-22T17:53:28.547Z,2.74
2023-02-22T17:55:42.216Z,2.72
2023-02-22T17:57:59.536Z,2.67
2023-02-22T18:00:23.488Z,2.64
2023-02-22T18:02:35.677Z,2.63
2023-02-22T18:04:47.665Z,2.61
2023-02-22T18:07:00.376Z,2.62
2023-02-22T18:09:14.756Z,2.61
2023-02-22T18:11:28.863Z,2.57
2023-02-22T18:13:41.708Z,2.56
2023-02-22T18:16:00.042Z,2.52
2023-02-22T18:18:13.062Z,2.49
2023-02-22T18:20:31.325Z,2.44
2023-02-22T18:22:44.067Z,2.38
2023-02-22T18:25:00.159Z,2.31
2023-02-22T18:27:14.955Z,2.28
2023-02-22T18:29:29.079Z,2.23
2023-02-22T18:31:40.747Z,2.17
2023-02-22T18:33:53.006Z,2.12
2023-02-22T18:36:05.804Z,2.08
2023-02-22T18:38:26.090Z,2.05
2023-02-22T18:40:38.387Z,2.02
2023-02-22T18:42:50.387Z,1.98
2023-02-22T18:45:04.836Z,1.94
2023-02-22T18:47:17.411Z,1.90
2023-02-22T18:49:29.336Z,1.85
2023-02-22T18:51:43.748Z,1.82
2023-02-22T18:54:00.795Z,1.78
2023-02-22T18:56:16.121Z,1.76
2023-02-22T18:58:28.069Z,1.75
2023-02-22T19:00:40.064Z,1.73
2023-02-22T19:02:53.916Z,1.71
2023-02-22T19:05:06.611Z,1.70
2023-02-22T19:07:20.245Z,1.66
2023-02-22T19:09:32.867Z,1.64
2023-02-22T19:11:46.803Z,1.62
2023-02-22T19:13:58.800Z,1.59
2023-02-22T19:16:10.525Z,1.57
2023-02-22T19:18:23.775Z,1.54
2023-02-22T19:20:36.086Z,1.52
2023-02-22T19:22:49.442Z,1.49
2023-02-22T19:25:01.644Z,1.47
2023-02-22T19:27:16.972Z,1.44
2023-02-22T19:29:31.306Z,1.42
2023-02-22T19:31:46.025Z,1.39
2023-02-22T19:34:09.172Z,1.36
2023-02-22T19:36:25.771Z,1.31
2023-02-22T19:38:38.632Z,1.31
2023-02-22T19:40:51.091Z,1.30
2023-02-22T19:43:03.186Z,1.30
2023-02-22T19:45:15.067Z,1.29
2023-02-22T19:47:26.975Z,1.26
2023-02-22T19:49:41.255Z,1.24
2023-02-22T19:51:53.316Z,1.22
2023-02-22T19:54:07.368Z,1.19
2023-02-22T19:56:27.037Z,1.17
2023-02-22T19:58:40.870Z,1.15
2023-02-22T20:00:52.638Z,1.14
2023-02-22T20:03:09.492Z,1.11
2023-02-22T20:05:21.056Z,1.10
2023-02-22T20:07:33.665Z,1.08
2023-02-22T20:09:45.657Z,1.06
2023-02-22T20:11:57.377Z,1.04
2023-02-22T20:14:17.619Z,1.03
2023-02-22T20:16:30.237Z,1.02
2023-02-22T20:18:47.773Z,1.02
2023-02-22T20:21:09.705Z,1.00
2023-02-22T20:23:24.263Z,0.98
2023-02-22T20:25:36.305Z,0.96
2023-02-22T20:27:47.932Z,0.92
2023-02-22T20:29:59.927Z,0.88
2023-02-22T20:32:15.149Z,0.87
2023-02-22T20:34:31.435Z,0.87
2023-02-22T20:36:43.591Z,0.88
2023-02-22T20:38:59.175Z,0.88
2023-02-22T20:41:15.796Z,0.87
2023-02-22T20:43:28.033Z,0.85
2023-02-22T20:45:41.296Z,0.84
2023-02-22T20:47:52.985Z,0.83
2023-02-22T20:50:05.849Z,0.81
2023-02-22T20:52:17.590Z,0.80
2023-02-22T20:54:29.245Z,0.77
2023-02-22T20:56:43.729Z,0.76
2023-02-22T20:59:01.499Z,0.74
2023-02-22T21:01:17.178Z,0.73
2023-02-22T21:03:29.296Z,0.72
2023-02-22T21:05:45.873Z,0.71
2023-02-22T21:07:58.589Z,0.70
2023-02-22T21:10:10.426Z,0.70
2023-02-22T21:12:22.342Z,0.71
2023-02-22T21:14:34.897Z,0.71
2023-02-22T21:16:49.032Z,0.71
2023-02-22T21:19:04.165Z,0.69
2023-02-22T21:21:16.719Z,0.68
2023-02-22T21:23:30.278Z,0.68
2023-02-22T21:25:53.200Z,0.66
2023-02-22T21:28:05.555Z,0.63
2023-02-22T21:30:17.957Z,0.61
2023-02-22T21:32:29.635Z,0.60
2023-02-22T21:34:42.258Z,0.60
2023-02-22T21:36:54.752Z,0.60
2023-02-22T21:39:18.436Z,0.57
2023-02-22T21:41:31.657Z,0.55
2023-02-22T21:43:48.909Z,0.52
2023-02-22T21:46:04.848Z,0.51
2023-02-22T21:48:17.497Z,0.51
2023-02-22T21:50:31.246Z,0.50
2023-02-22T21:52:48.756Z,0.48
2023-02-22T21:55:01.478Z,0.45
2023-02-22T21:57:15.394Z,0.43
2023-02-22T21:59:27.805Z,0.40
2023-02-22T22:01:47.558Z,0.37
2023-02-22T22:04:01.895Z,0.35
2023-02-22T22:06:14.555Z,0.34
2023-02-22T22:08:28.156Z,0.33
2023-02-22T22:10:39.638Z,0.31
2023-02-22T22:12:52.960Z,0.30
2023-02-22T22:15:05.373Z,0.28
2023-02-22T22:17:17.356Z,0.26
2023-02-22T22:19:30.705Z,0.26
2023-02-22T22:21:42.986Z,0.25
2023-02-22T22:23:56.299Z,0.24
2023-02-22T22:26:13.127Z,0.23
2023-02-22T22:28:27.159Z,0.22
2023-02-22T22:30:39.988Z,0.20
2023-02-22T22:32:51.762Z,0.18
2023-02-22T22:35:05.320Z,0.18
2023-02-22T22:37:17.594Z,0.18
2023-02-22T22:39:29.383Z,0.17
2023-02-22T22:41:45.010Z,0.16
2023-02-22T22:43:56.554Z,0.16
2023-02-22T22:46:08.952Z,0.15
2023-02-22T22:48:22.891Z,0.14
2023-02-22T22:50:34.681Z,0.15
2023-02-22T22:52:46.778Z,0.13
2023-02-22T22:55:00.822Z,0.12
2023-02-22T22:57:13.839Z,0.11
2023-02-22T22:59:25.323Z,0.11
2023-02-22T23:01:40.666Z,0.08
2023-02-22T23:04:04.568Z,0.08
2023-02-22T23:06:16.672Z,0.06
2023-02-22T23:08:29.477Z,0.06
2023-02-22T23:10:41.890Z,0.04
2023-02-22T23:12:55.990Z,0.03
2023-02-22T23:15:08.947Z,0.02
2023-02-22T23:17:31.543Z,0.00
2023-02-22T23:19:45.100Z,-0.01
2023-02-22T23:21:59.215Z,-0.01
2023-02-22T23:24:15.289Z,0.00
2023-02-22T23:26:27.353Z,-0.02
2023-02-22T23:28:41.042Z,-0.02
2023-02-22T23:30:53.043Z,-0.04
2023-02-22T23:33:05.293Z,-0.04
2023-02-22T23:35:19.234Z,-0.04
2023-02-22T23:37:35.555Z,-0.05
2023-02-22T23:39:48.862Z,-0.06
2023-02-22T23:42:00.549Z,-0.07
2023-02-22T23:44:17.565Z,-0.08
2023-02-22T23:46:33.014Z,-0.08
2023-02-22T23:48:51.133Z,-0.08
2023-02-22T23:51:10.618Z,-0.08
2023-02-22T23:53:22.732Z,-0.10
2023-02-22T23:55:39.275Z,-0.10
2023-02-22T23:57:51.121Z,-0.10
